createdAt,value
2022-11-10T00:00:09.886Z,101474.50
2022-11-10T00:02:56.994Z,101472.81
2022-11-10T00:05:44.126Z,101470.97
2022-11-10T00:08:32.638Z,101471.81
2022-11-10T00:11:19.300Z,101474.66
2022-11-10T00:14:23.917Z,101470.28
2022-11-10T00:17:11.545Z,101444.19
2022-11-10T00:19:58.361Z,101474.78
2022-11-10T00:22:44.966Z,101475.50
2022-11-10T00:25:33.819Z,101479.31
2022-11-10T00:28:20.944Z,101476.81
2022-11-10T00:31:08.323Z,101483.50
2022-11-10T00:33:55.531Z,101462.63
2022-11-10T00:36:43.815Z,101482.09
2022-11-10T00:39:30.534Z,101486.19
2022-11-10T00:42:18.907Z,101491.56
2022-11-10T00:45:07.289Z,101490.84
2022-11-10T00:47:54.015Z,101507.53
2022-11-10T00:50:40.757Z,101495.94
2022-11-10T00:53:27.527Z,101491.69
2022-11-10T00:56:14.281Z,101499.06
2022-11-10T00:59:02.567Z,101500.22
2022-11-10T01:01:49.557Z,101502.19
2022-11-10T01:04:36.519Z,101509.41
2022-11-10T01:07:23.316Z,101486.41
2022-11-10T01:10:10.343Z,101505.03
2022-11-10T01:12:57.256Z,101509.13
2022-11-10T01:15:45.844Z,101510.66
2022-11-10T01:18:32.867Z,101497.81
2022-11-10T01:21:20.281Z,101500.47
2022-11-10T01:24:07.956Z,101497.94
2022-11-10T01:26:54.849Z,101507.84
2022-11-10T01:29:41.593Z,101505.28
2022-11-10T01:32:30.020Z,101503.75
2022-11-10T01:35:17.358Z,101500.81
2022-11-10T01:38:04.061Z,101501.78
2022-11-10T01:40:51.166Z,101502.78
2022-11-10T01:43:38.388Z,101504.78
2022-11-10T01:46:25.113Z,101500.53
2022-11-10T01:49:14.875Z,101505.34
2022-11-10T01:52:05.786Z,101452.91
2022-11-10T01:54:52.720Z,101496.91
2022-11-10T01:57:41.616Z,101502.28
2022-11-10T02:00:28.880Z,101500.59
2022-11-10T02:03:31.940Z,101455.69
2022-11-10T02:06:23.769Z,101430.56
2022-11-10T02:09:10.961Z,101492.53
2022-11-10T02:11:59.068Z,101490.56
2022-11-10T02:14:46.040Z,101498.63
2022-11-10T02:17:33.054Z,101500.31
2022-11-10T02:20:21.770Z,101376.53
2022-11-10T02:23:47.500Z,101496.31
2022-11-10T02:26:34.426Z,101501.81
2022-11-10T02:29:22.095Z,101500.25
2022-11-10T02:32:08.861Z,101500.81
2022-11-10T02:34:56.086Z,101493.25
2022-11-10T02:37:42.801Z,101511.13
2022-11-10T02:40:31.208Z,101516.38
2022-11-10T02:43:20.765Z,101512.28
2022-11-10T02:46:08.015Z,101508.66
2022-11-10T02:48:55.085Z,101507.00
2022-11-10T02:51:42.085Z,101503.19
2022-11-10T02:54:28.825Z,101518.06
2022-11-10T02:57:17.673Z,101517.66
2022-11-10T03:00:05.292Z,101526.44
2022-11-10T03:02:57.492Z,101524.56
2022-11-10T03:05:44.229Z,101519.63
2022-11-10T03:08:31.123Z,101480.81
2022-11-10T03:11:17.841Z,101522.34
2022-11-10T03:14:06.285Z,101526.88
2022-11-10T03:16:53.805Z,101525.03
2022-11-10T03:19:42.133Z,101528.13
2022-11-10T03:22:30.718Z,101535.22
2022-11-10T03:25:17.702Z,101535.22
2022-11-10T03:28:04.406Z,101544.94
2022-11-10T03:30:52.627Z,101544.94
2022-11-10T03:33:39.269Z,101553.84
2022-11-10T03:36:26.240Z,101548.22
2022-11-10T03:39:13.389Z,101555.00
2022-11-10T03:42:00.400Z,101564.03
2022-11-10T03:44:47.068Z,101565.44
2022-11-10T03:47:35.381Z,101568.53
2022-11-10T03:50:22.314Z,101580.25
2022-11-10T03:53:08.985Z,101573.59
2022-11-10T03:55:55.764Z,101578.13
2022-11-10T03:58:43.119Z,101575.72
2022-11-10T04:01:29.892Z,101559.59
2022-11-10T04:04:31.982Z,101584.31
2022-11-10T04:07:36.388Z,101578.91
2022-11-10T04:10:24.553Z,101597.69
2022-11-10T04:13:29.613Z,101578.31
2022-11-10T04:16:16.864Z,101599.50
2022-11-10T04:19:04.145Z,101594.84
2022-11-10T04:21:52.924Z,101592.72
2022-11-10T04:24:39.944Z,101591.81
2022-11-10T04:27:27.061Z,101591.75
2022-11-10T04:30:14.122Z,101587.25
2022-11-10T04:33:00.923Z,101561.75
2022-11-10T04:35:48.198Z,101593.09
2022-11-10T04:38:37.361Z,101598.28
2022-11-10T04:41:25.506Z,101564.16
2022-11-10T04:44:12.623Z,101602.59
2022-11-10T04:46:59.660Z,101604.09
2022-11-10T04:49:46.482Z,101608.03
2022-11-10T04:52:33.290Z,101605.03
2022-11-10T04:55:23.151Z,101609.94
2022-11-10T04:58:10.442Z,101608.63
2022-11-10T05:00:57.423Z,101589.47
2022-11-10T05:03:44.910Z,101635.91
2022-11-10T05:06:32.313Z,101635.69
2022-11-10T05:09:19.170Z,101627.97
2022-11-10T05:12:07.782Z,101630.88
2022-11-10T05:14:54.631Z,101631.25
2022-11-10T05:17:41.599Z,101637.97
2022-11-10T05:20:28.614Z,101642.13
2022-11-10T05:23:32.634Z,101632.53
2022-11-10T05:26:19.956Z,101635.72
2022-11-10T05:29:08.067Z,101642.06
2022-11-10T05:31:54.854Z,101644.97
2022-11-10T05:34:41.641Z,101646.34
2022-11-10T05:37:28.463Z,101636.47
2022-11-10T05:40:15.314Z,101643.44
2022-11-10T05:43:02.793Z,101643.44
2022-11-10T05:45:51.081Z,101648.41
2022-11-10T05:48:38.175Z,101649.28
2022-11-10T05:51:25.222Z,101652.31
2022-11-10T05:54:12.298Z,101656.44
2022-11-10T05:56:59.220Z,101659.03
2022-11-10T05:59:46.242Z,101665.59
2022-11-10T06:02:34.286Z,101663.66
2022-11-10T06:05:21.055Z,101663.53
2022-11-10T06:08:09.216Z,101663.41
2022-11-10T06:10:56.139Z,101667.41
2022-11-10T06:13:43.059Z,101669.00
2022-11-10T06:16:29.831Z,101664.97
2022-11-10T06:19:18.026Z,101672.38
2022-11-10T06:22:07.702Z,101680.88
2022-11-10T06:24:55.336Z,101676.00
2022-11-10T06:27:45.011Z,101666.31
2022-11-10T06:30:33.343Z,101685.84
2022-11-10T06:33:20.444Z,101691.31
2022-11-10T06:36:10.108Z,101678.06
2022-11-10T06:38:56.780Z,101688.16
2022-11-10T06:41:43.893Z,101689.69
2022-11-10T06:44:30.965Z,101694.94
2022-11-10T06:47:19.136Z,101693.97
2022-11-10T06:50:06.420Z,101692.03
2022-11-10T06:52:56.963Z,101699.31
2022-11-10T06:55:43.829Z,101703.22
2022-11-10T06:58:30.767Z,101710.09
2022-11-10T07:01:22.133Z,101712.16
2022-11-10T07:04:24.604Z,101717.59
2022-11-10T07:07:12.074Z,101720.16
2022-11-10T07:10:05.559Z,101731.47
2022-11-10T07:12:58.665Z,101733.00
2022-11-10T07:15:45.827Z,101734.94
2022-11-10T07:18:32.776Z,101735.78
2022-11-10T07:21:19.876Z,101752.88
2022-11-10T07:24:07.717Z,101750.97
2022-11-10T07:26:56.108Z,101760.44
2022-11-10T07:29:42.964Z,101767.78
2022-11-10T07:32:29.837Z,101729.09
2022-11-10T07:35:16.731Z,101774.31
2022-11-10T07:38:06.182Z,101775.56
2022-11-10T07:40:53.939Z,101789.59
2022-11-10T07:43:42.195Z,101798.66
2022-11-10T07:46:29.155Z,101799.94
2022-11-10T07:49:16.098Z,101809.34
2022-11-10T07:52:02.986Z,101811.31
2022-11-10T07:54:49.762Z,101808.50
2022-11-10T07:57:36.608Z,101825.25
2022-11-10T08:00:24.846Z,101810.56
2022-11-10T08:03:13.941Z,101821.41
2022-11-10T08:06:00.582Z,101821.34
2022-11-10T08:08:47.661Z,101813.22
2022-11-10T08:11:34.584Z,101812.41
2022-11-10T08:14:21.341Z,101813.59
2022-11-10T08:17:09.862Z,101804.97
2022-11-10T08:19:57.121Z,101818.69
2022-11-10T08:22:45.406Z,101817.00
2022-11-10T08:25:35.379Z,101823.34
2022-11-10T08:28:22.599Z,101824.50
2022-11-10T08:31:09.886Z,101828.75
2022-11-10T08:33:58.226Z,101825.03
2022-11-10T08:36:45.234Z,101821.78
2022-11-10T08:39:39.147Z,101822.44
2022-11-10T08:42:26.494Z,101833.22
2022-11-10T08:45:13.821Z,101833.19
2022-11-10T08:48:01.342Z,101832.28
2022-11-10T08:50:51.639Z,101799.19
2022-11-10T08:53:38.687Z,101836.34
2022-11-10T08:56:25.830Z,101835.50
2022-11-10T08:59:12.917Z,101834.66
2022-11-10T09:01:59.946Z,101839.03
2022-11-10T09:04:46.944Z,101845.56
2022-11-10T09:07:43.403Z,101846.44
2022-11-10T09:10:30.322Z,101847.28
2022-11-10T09:13:18.050Z,101852.38
2022-11-10T09:16:06.449Z,101847.69
2022-11-10T09:25:36.189Z,101848.38
2022-11-10T09:28:24.127Z,101855.16
2022-11-10T09:31:10.914Z,101859.78
2022-11-10T09:33:59.343Z,101863.03
2022-11-10T09:36:46.136Z,101848.63
2022-11-10T09:39:32.885Z,101868.53
2022-11-10T09:42:29.107Z,101868.94
2022-11-10T09:45:23.481Z,101876.72
2022-11-10T09:48:21.075Z,101871.03
2022-11-10T09:51:12.194Z,101867.06
2022-11-10T09:54:03.346Z,101883.91
2022-11-10T09:56:53.521Z,101884.16
2022-11-10T09:59:44.916Z,101882.59
2022-11-10T10:02:35.247Z,101878.22
2022-11-10T10:05:40.635Z,101885.81
2022-11-10T10:08:40.370Z,101877.13
2022-11-10T10:11:38.046Z,101869.88
2022-11-10T10:14:37.639Z,101880.47
2022-11-10T10:17:29.939Z,101883.72
2022-11-10T10:20:25.032Z,101879.53
2022-11-10T10:23:30.503Z,101880.91
2022-11-10T10:26:30.780Z,101880.63
2022-11-10T10:29:23.235Z,101881.00
2022-11-10T10:32:13.717Z,101877.00
2022-11-10T10:35:01.943Z,101878.94
2022-11-10T10:37:53.494Z,101881.50
2022-11-10T10:40:40.667Z,101881.50
2022-11-10T10:43:27.661Z,101883.69
2022-11-10T10:46:16.577Z,101885.63
2022-11-10T10:49:31.541Z,101888.72
2022-11-10T10:52:25.175Z,101883.69
2022-11-10T10:55:14.685Z,101880.69
2022-11-10T10:58:02.997Z,101879.03
2022-11-10T11:00:51.764Z,101879.94
2022-11-10T11:03:44.319Z,101875.13
2022-11-10T11:06:32.379Z,101883.59
2022-11-10T11:09:25.262Z,101881.28
2022-11-10T11:12:13.787Z,101844.72
2022-11-10T11:15:15.097Z,101866.47
2022-11-10T11:18:05.709Z,101818.84
2022-11-10T11:21:01.171Z,101871.09
2022-11-10T11:24:12.134Z,101867.41
2022-11-10T11:27:06.151Z,101854.34
2022-11-10T11:30:04.813Z,101856.59
2022-11-10T11:33:14.774Z,101855.28
2022-11-10T11:36:10.472Z,101857.50
2022-11-10T11:39:06.573Z,101853.47
2022-11-10T11:42:05.037Z,101853.69
2022-11-10T11:45:07.413Z,101849.50
2022-11-10T11:48:16.187Z,101846.78
2022-11-10T11:51:11.210Z,101838.69
2022-11-10T11:54:26.281Z,101842.72
2022-11-10T11:57:24.355Z,101831.91
2022-11-10T12:00:15.600Z,101837.00
2022-11-10T12:03:35.149Z,101829.56
2022-11-10T12:06:33.461Z,101824.47
2022-11-10T12:09:28.657Z,101827.34
2022-11-10T12:12:43.544Z,101843.44
2022-11-10T12:15:39.294Z,101847.31
2022-11-10T12:18:34.631Z,101841.44
2022-11-10T12:21:26.772Z,101823.31
2022-11-10T12:24:40.053Z,101846.34
2022-11-10T12:27:31.686Z,101848.19
2022-11-10T12:30:19.517Z,101837.38
2022-11-10T12:33:17.360Z,101819.41
2022-11-10T12:36:07.197Z,101846.34
2022-11-10T12:39:00.444Z,101845.84
2022-11-10T12:41:51.005Z,101843.50
2022-11-10T12:44:43.605Z,101848.09
2022-11-10T12:47:37.088Z,101858.59
2022-11-10T12:50:39.654Z,101845.06
2022-11-10T12:53:30.718Z,101842.88
2022-11-10T12:56:22.397Z,101842.41
2022-11-10T12:59:23.817Z,101840.53
2022-11-10T13:02:25.072Z,101845.25
2022-11-10T13:05:24.430Z,101843.56
2022-11-10T13:08:33.080Z,101850.00
2022-11-10T13:11:27.873Z,101844.75
2022-11-10T13:14:23.885Z,101840.50
2022-11-10T13:17:12.608Z,101850.16
2022-11-10T13:20:27.552Z,101847.78
2022-11-10T13:23:22.912Z,101852.66
2022-11-10T13:26:13.517Z,101859.94
2022-11-10T13:29:03.137Z,101872.28
2022-11-10T13:31:55.997Z,101862.16
2022-11-10T13:34:43.672Z,101839.47
2022-11-10T13:37:53.476Z,101862.84
2022-11-10T13:40:44.483Z,101867.56
2022-11-10T13:43:33.117Z,101867.56
2022-11-10T13:46:21.240Z,101864.69
2022-11-10T13:49:30.244Z,101874.84
2022-11-10T13:52:21.453Z,101875.50
2022-11-10T13:55:22.778Z,101882.94
2022-11-10T13:58:13.584Z,101865.31
2022-11-10T14:01:30.587Z,101883.78
2022-11-10T14:04:42.892Z,101886.97
2022-11-10T14:07:31.539Z,101897.28
2022-11-10T14:10:26.932Z,101889.84
2022-11-10T14:13:18.188Z,101910.47
2022-11-10T14:16:17.106Z,101910.09
2022-11-10T14:19:17.210Z,101919.06
2022-11-10T14:22:13.499Z,101918.06
2022-11-10T14:25:06.551Z,101928.19
2022-11-10T14:27:58.196Z,101924.44
2022-11-10T14:30:52.408Z,101937.25
2022-11-10T14:33:39.276Z,101940.94
2022-11-10T14:36:27.761Z,101932.59
2022-11-10T14:39:17.510Z,101944.28
2022-11-10T14:42:06.965Z,101938.19
2022-11-10T14:45:08.297Z,101935.94
2022-11-10T14:47:56.775Z,101939.63
2022-11-10T14:50:43.846Z,101944.34
2022-11-10T14:53:36.171Z,101955.16
2022-11-10T14:56:25.740Z,101958.19
2022-11-10T14:59:15.658Z,101951.22
2022-11-10T15:02:03.141Z,101951.22
2022-11-10T15:04:53.790Z,101965.06
2022-11-10T15:07:40.819Z,101954.72
2022-11-10T15:10:43.541Z,101956.06
2022-11-10T15:13:42.088Z,101814.56
2022-11-10T15:16:31.292Z,101966.81
2022-11-10T15:19:22.912Z,101971.84
2022-11-10T15:22:18.656Z,101985.81
2022-11-10T15:25:14.516Z,101985.41
2022-11-10T15:28:06.300Z,101989.47
2022-11-10T15:30:55.139Z,101982.66
2022-11-10T15:33:48.340Z,101990.66
2022-11-10T15:36:39.755Z,101986.03
2022-11-10T15:39:27.445Z,101982.13
2022-11-10T15:42:16.892Z,101989.81
2022-11-10T15:45:05.962Z,101997.22
2022-11-10T15:47:52.935Z,102006.06
2022-11-10T15:50:40.457Z,102010.22
2022-11-10T15:53:31.341Z,102006.13
2022-11-10T15:56:20.340Z,102005.59
2022-11-10T15:59:07.415Z,102012.75
2022-11-10T16:01:55.871Z,102011.19
2022-11-10T16:04:42.990Z,102012.50
2022-11-10T16:07:29.855Z,102021.34
2022-11-10T16:10:18.589Z,102017.41
2022-11-10T16:13:06.639Z,102028.09
2022-11-10T16:15:53.925Z,102017.47
2022-11-10T16:18:43.963Z,102029.25
2022-11-10T16:21:30.957Z,102028.84
2022-11-10T16:24:17.880Z,102034.41
2022-11-10T16:27:06.371Z,102021.50
2022-11-10T16:29:53.202Z,102052.88
2022-11-10T16:32:40.040Z,102045.63
2022-11-10T16:35:28.890Z,102056.41
2022-11-10T16:38:20.805Z,102069.19
2022-11-10T16:41:13.555Z,102029.00
2022-11-10T16:44:00.568Z,102056.75
2022-11-10T16:46:51.037Z,102069.66
2022-11-10T16:49:43.681Z,102068.94
2022-11-10T16:52:32.353Z,102076.19
2022-11-10T16:55:18.965Z,102069.38
2022-11-10T16:58:05.741Z,102072.06
2022-11-10T17:00:52.643Z,102081.16
2022-11-10T17:03:44.405Z,102077.47
2022-11-10T17:06:31.720Z,102087.53
2022-11-10T17:09:23.428Z,102090.34
2022-11-10T17:12:15.063Z,102085.09
2022-11-10T17:15:02.064Z,102086.53
2022-11-10T17:17:52.149Z,102056.16
2022-11-10T17:20:41.587Z,102086.81
2022-11-10T17:23:28.605Z,102099.53
2022-11-10T17:26:19.622Z,102107.50
2022-11-10T17:29:06.385Z,102113.13
2022-11-10T17:31:54.237Z,102117.91
2022-11-10T17:34:41.243Z,102119.88
2022-11-10T17:37:28.280Z,102128.63
2022-11-10T17:40:21.169Z,102136.00
2022-11-10T17:43:12.754Z,102134.16
2022-11-10T17:45:59.835Z,102138.22
2022-11-10T17:48:47.962Z,102134.22
2022-11-10T17:51:36.143Z,102116.13
2022-11-10T17:54:22.906Z,102145.16
2022-11-10T17:57:11.278Z,102145.56
2022-11-10T17:59:59.459Z,102146.69
2022-11-10T18:02:54.038Z,102148.06
2022-11-10T18:05:42.403Z,102154.94
2022-11-10T18:08:29.568Z,102150.50
2022-11-10T18:11:18.186Z,102146.88
2022-11-10T18:14:05.260Z,102142.44
2022-11-10T18:16:53.850Z,102151.13
2022-11-10T18:19:40.385Z,102166.25
2022-11-10T18:22:27.288Z,102172.84
2022-11-10T18:25:14.068Z,102170.03
2022-11-10T18:28:01.005Z,102176.56
2022-11-10T18:30:47.860Z,102181.69
2022-11-10T18:33:36.997Z,102178.03
2022-11-10T18:36:23.545Z,102190.75
2022-11-10T18:39:10.397Z,102186.00
2022-11-10T18:41:57.297Z,102193.97
2022-11-10T18:44:43.807Z,102194.56
2022-11-10T18:47:30.604Z,102191.41
2022-11-10T18:50:20.002Z,102182.50
2022-11-10T18:53:06.624Z,102189.84
2022-11-10T18:55:56.568Z,102186.88
2022-11-10T18:58:43.816Z,102185.44
2022-11-10T19:01:30.800Z,102184.47
2022-11-10T19:04:17.401Z,102194.22
2022-11-10T19:07:05.668Z,102204.13
2022-11-10T19:09:52.646Z,102204.13
2022-11-10T19:12:39.435Z,102208.53
2022-11-10T19:15:26.186Z,102206.69
2022-11-10T19:18:13.397Z,102204.13
2022-11-10T19:21:04.783Z,102208.41
2022-11-10T19:23:56.990Z,102210.81
2022-11-10T19:26:43.976Z,102212.66
2022-11-10T19:29:31.399Z,102218.16
2022-11-10T19:32:23.612Z,102220.59
2022-11-10T19:35:13.473Z,102223.16
2022-11-10T19:38:00.155Z,102221.03
2022-11-10T19:40:48.211Z,102224.31
2022-11-10T19:43:35.668Z,102200.47
2022-11-10T19:46:24.364Z,102221.50
2022-11-10T19:49:11.136Z,102220.38
2022-11-10T19:51:59.258Z,102220.25
2022-11-10T19:54:45.989Z,102222.94
2022-11-10T19:57:34.376Z,102228.31
2022-11-10T20:00:21.593Z,102232.84
2022-11-10T20:03:11.593Z,102237.38
2022-11-10T20:05:59.201Z,102209.72
2022-11-10T20:08:46.320Z,102246.16
2022-11-10T20:11:33.493Z,102240.06
2022-11-10T20:14:21.920Z,102251.53
2022-11-10T20:17:08.979Z,102258.03
2022-11-10T20:19:56.002Z,102261.56
2022-11-10T20:22:42.714Z,102270.75
2022-11-10T20:25:29.841Z,102263.66
2022-11-10T20:28:17.061Z,102266.22
2022-11-10T20:31:07.685Z,102261.22
2022-11-10T20:33:55.881Z,102270.41
2022-11-10T20:36:43.881Z,102266.81
2022-11-10T20:39:30.669Z,102268.38
2022-11-10T20:42:17.966Z,102276.56
2022-11-10T20:45:05.852Z,102277.69
2022-11-10T20:47:53.997Z,102276.09
2022-11-10T20:50:42.073Z,102277.94
2022-11-10T20:53:30.559Z,102283.44
2022-11-10T20:56:17.309Z,102288.06
2022-11-10T20:59:04.181Z,102290.28
2022-11-10T21:01:51.087Z,102295.66
2022-11-10T21:04:43.066Z,102291.50
2022-11-10T21:07:30.133Z,102283.88
2022-11-10T21:10:17.289Z,102298.41
2022-11-10T21:13:04.178Z,102288.13
2022-11-10T21:15:52.253Z,102296.19
2022-11-10T21:18:39.171Z,102299.13
2022-11-10T21:21:34.710Z,102290.09
2022-11-10T21:24:21.702Z,102310.22
2022-11-10T21:27:11.021Z,102306.44
2022-11-10T21:29:58.228Z,102299.50
2022-11-10T21:32:45.142Z,102303.53
2022-11-10T21:35:37.696Z,102298.78
2022-11-10T21:38:26.499Z,102303.56
2022-11-10T21:41:13.360Z,102302.81
2022-11-10T21:44:00.262Z,102310.41
2022-11-10T21:46:47.317Z,102326.75
2022-11-10T21:49:34.388Z,102318.69
2022-11-10T21:52:21.046Z,102314.06
2022-11-10T21:55:10.674Z,102308.06
2022-11-10T21:57:59.116Z,102314.91
2022-11-10T22:00:45.833Z,102319.81
2022-11-10T22:03:33.827Z,102327.38
2022-11-10T22:06:21.368Z,102328.47
2022-11-10T22:09:08.278Z,102319.69
2022-11-10T22:12:13.833Z,102320.66
2022-11-10T22:15:18.259Z,102319.31
2022-11-10T22:18:23.054Z,102319.53
2022-11-10T22:21:10.756Z,102317.59
2022-11-10T22:24:14.634Z,102324.06
2022-11-10T22:27:04.449Z,102318.81
2022-11-10T22:29:51.245Z,102334.91
2022-11-10T22:32:37.967Z,102337.00
2022-11-10T22:35:42.265Z,102345.91
2022-11-10T22:38:29.616Z,102346.28
2022-11-10T22:41:34.931Z,102347.13
2022-11-10T22:44:25.162Z,102348.94
2022-11-10T22:47:12.249Z,102358.56
2022-11-10T22:49:58.950Z,102355.25
2022-11-10T22:52:46.032Z,102377.69
2022-11-10T22:55:32.880Z,102379.00
2022-11-10T22:58:20.180Z,102379.50
2022-11-10T23:01:10.719Z,102373.53
2022-11-10T23:03:58.635Z,102375.69
2022-11-10T23:06:45.442Z,102386.03
2022-11-10T23:09:34.849Z,102367.78
2022-11-10T23:12:21.508Z,102373.75
2022-11-10T23:15:09.489Z,102378.72
2022-11-10T23:17:59.978Z,102381.41
2022-11-10T23:20:50.826Z,102391.59
2022-11-10T23:23:39.442Z,102381.63
2022-11-10T23:26:30.060Z,102390.84
2022-11-10T23:29:17.369Z,102382.94
2022-11-10T23:32:04.273Z,102392.16
2022-11-10T23:34:52.366Z,102394.34
2022-11-10T23:37:39.486Z,102389.56
2022-11-10T23:40:26.336Z,102394.28
2022-11-10T23:43:13.253Z,102399.97
2022-11-10T23:46:06.947Z,102404.13
2022-11-10T23:48:54.471Z,102402.19
2022-11-10T23:51:42.728Z,102405.06
2022-11-10T23:54:29.771Z,102407.38
2022-11-10T23:57:16.845Z,102410.69
